sensor_id;sensor_type;location;lat;lon;timestamp;P1;durP1;ratioP1;P2;durP2;ratioP2
75316;SDS011;63913;51.492;10.368;2023-08-30T00:00:09;1.00;;;0.95;;
75316;SDS011;63913;51.492;10.368;2023-08-30T00:02:35;1.38;;;0.98;;
75316;SDS011;63913;51.492;10.368;2023-08-30T00:05:02;1.27;;;1.17;;
75316;SDS011;63913;51.492;10.368;2023-08-30T00:07:28;1.00;;;1.00;;
75316;SDS011;63913;51.492;10.368;2023-08-30T00:09:54;1.48;;;1.05;;
75316;SDS011;63913;51.492;10.368;2023-08-30T00:12:20;1.23;;;0.98;;
75316;SDS011;63913;51.492;10.368;2023-08-30T00:14:46;1.73;;;1.10;;
75316;SDS011;63913;51.492;10.368;2023-08-30T00:17:11;1.02;;;0.93;;
75316;SDS011;63913;51.492;10.368;2023-08-30T00:19:37;6.32;;;1.00;;
75316;SDS011;63913;51.492;10.368;2023-08-30T00:22:02;3.33;;;1.23;;
75316;SDS011;63913;51.492;10.368;2023-08-30T00:24:28;1.50;;;1.20;;
75316;SDS011;63913;51.492;10.368;2023-08-30T00:26:53;1.02;;;0.90;;
75316;SDS011;63913;51.492;10.368;2023-08-30T00:29:19;4.07;;;1.30;;
75316;SDS011;63913;51.492;10.368;2023-08-30T00:31:44;2.20;;;1.20;;
75316;SDS011;63913;51.492;10.368;2023-08-30T00:34:10;2.80;;;1.20;;
75316;SDS011;63913;51.492;10.368;2023-08-30T00:36:35;1.10;;;1.00;;
75316;SDS011;63913;51.492;10.368;2023-08-30T00:39:01;2.60;;;1.17;;
75316;SDS011;63913;51.492;10.368;2023-08-30T00:41:29;1.10;;;0.82;;
75316;SDS011;63913;51.492;10.368;2023-08-30T00:43:54;2.28;;;1.55;;
75316;SDS011;63913;51.492;10.368;2023-08-30T00:46:19;1.23;;;0.95;;
75316;SDS011;63913;51.492;10.368;2023-08-30T00:48:45;0.88;;;0.88;;
75316;SDS011;63913;51.492;10.368;2023-08-30T00:51:11;1.50;;;1.33;;
75316;SDS011;63913;51.492;10.368;2023-08-30T00:53:36;2.13;;;1.10;;
75316;SDS011;63913;51.492;10.368;2023-08-30T00:56:02;1.13;;;1.05;;
75316;SDS011;63913;51.492;10.368;2023-08-30T00:58:28;1.65;;;0.93;;
75316;SDS011;63913;51.492;10.368;2023-08-30T01:00:54;1.23;;;1.00;;
75316;SDS011;63913;51.492;10.368;2023-08-30T01:03:20;1.15;;;1.05;;
75316;SDS011;63913;51.492;10.368;2023-08-30T01:05:46;1.23;;;1.00;;
75316;SDS011;63913;51.492;10.368;2023-08-30T01:08:12;1.25;;;1.10;;
75316;SDS011;63913;51.492;10.368;2023-08-30T01:10:41;1.35;;;1.00;;
75316;SDS011;63913;51.492;10.368;2023-08-30T01:13:19;2.50;;;1.10;;
75316;SDS011;63913;51.492;10.368;2023-08-30T01:15:48;1.08;;;0.98;;
75316;SDS011;63913;51.492;10.368;2023-08-30T01:18:19;0.85;;;0.85;;
75316;SDS011;63913;51.492;10.368;2023-08-30T01:20:47;0.98;;;0.90;;
75316;SDS011;63913;51.492;10.368;2023-08-30T01:28:52;1.25;;;1.10;;
75316;SDS011;63913;51.492;10.368;2023-08-30T01:31:21;1.10;;;1.00;;
75316;SDS011;63913;51.492;10.368;2023-08-30T01:33:48;1.73;;;1.30;;
75316;SDS011;63913;51.492;10.368;2023-08-30T01:36:16;1.20;;;1.10;;
75316;SDS011;63913;51.492;10.368;2023-08-30T01:38:41;1.70;;;1.02;;
75316;SDS011;63913;51.492;10.368;2023-08-30T01:41:08;1.15;;;1.13;;
75316;SDS011;63913;51.492;10.368;2023-08-30T01:43:34;1.13;;;1.00;;
75316;SDS011;63913;51.492;10.368;2023-08-30T01:46:03;4.78;;;1.27;;
75316;SDS011;63913;51.492;10.368;2023-08-30T01:48:29;1.38;;;1.27;;
75316;SDS011;63913;51.492;10.368;2023-08-30T01:50:58;1.48;;;0.93;;
75316;SDS011;63913;51.492;10.368;2023-08-30T01:53:25;1.65;;;1.08;;
75316;SDS011;63913;51.492;10.368;2023-08-30T01:55:51;1.13;;;1.05;;
75316;SDS011;63913;51.492;10.368;2023-08-30T01:58:18;4.95;;;1.30;;
75316;SDS011;63913;51.492;10.368;2023-08-30T02:00:43;1.70;;;1.30;;
75316;SDS011;63913;51.492;10.368;2023-08-30T02:03:09;1.48;;;1.30;;
75316;SDS011;63913;51.492;10.368;2023-08-30T02:05:42;1.58;;;1.33;;
75316;SDS011;63913;51.492;10.368;2023-08-30T02:08:22;1.30;;;1.23;;
75316;SDS011;63913;51.492;10.368;2023-08-30T02:10:59;1.90;;;1.40;;
75316;SDS011;63913;51.492;10.368;2023-08-30T02:13:28;1.80;;;1.25;;
75316;SDS011;63913;51.492;10.368;2023-08-30T02:15:55;1.55;;;1.30;;
75316;SDS011;63913;51.492;10.368;2023-08-30T02:18:22;2.95;;;1.40;;
75316;SDS011;63913;51.492;10.368;2023-08-30T02:20:52;1.73;;;1.38;;
75316;SDS011;63913;51.492;10.368;2023-08-30T02:23:18;2.63;;;1.15;;
75316;SDS011;63913;51.492;10.368;2023-08-30T02:25:44;2.47;;;1.25;;
75316;SDS011;63913;51.492;10.368;2023-08-30T02:28:09;2.53;;;1.40;;
75316;SDS011;63913;51.492;10.368;2023-08-30T02:30:35;1.25;;;1.10;;
75316;SDS011;63913;51.492;10.368;2023-08-30T02:33:00;3.83;;;1.60;;
75316;SDS011;63913;51.492;10.368;2023-08-30T02:35:26;2.22;;;1.55;;
75316;SDS011;63913;51.492;10.368;2023-08-30T02:37:51;1.20;;;1.20;;
75316;SDS011;63913;51.492;10.368;2023-08-30T02:40:16;1.65;;;1.38;;
75316;SDS011;63913;51.492;10.368;2023-08-30T02:42:42;2.22;;;1.30;;
75316;SDS011;63913;51.492;10.368;2023-08-30T02:45:07;2.05;;;1.40;;
75316;SDS011;63913;51.492;10.368;2023-08-30T02:47:33;2.30;;;1.23;;
75316;SDS011;63913;51.492;10.368;2023-08-30T02:49:59;1.52;;;1.10;;
75316;SDS011;63913;51.492;10.368;2023-08-30T02:52:25;1.00;;;1.00;;
75316;SDS011;63913;51.492;10.368;2023-08-30T02:54:50;1.10;;;1.00;;
75316;SDS011;63913;51.492;10.368;2023-08-30T02:57:16;1.58;;;1.20;;
75316;SDS011;63913;51.492;10.368;2023-08-30T02:59:41;1.58;;;1.13;;
75316;SDS011;63913;51.492;10.368;2023-08-30T03:02:07;1.20;;;1.10;;
75316;SDS011;63913;51.492;10.368;2023-08-30T03:04:32;1.42;;;1.23;;
75316;SDS011;63913;51.492;10.368;2023-08-30T03:06:57;1.75;;;1.45;;
75316;SDS011;63913;51.492;10.368;2023-08-30T03:09:25;1.08;;;1.08;;
75316;SDS011;63913;51.492;10.368;2023-08-30T03:11:51;1.52;;;1.40;;
75316;SDS011;63913;51.492;10.368;2023-08-30T03:14:16;1.50;;;1.20;;
75316;SDS011;63913;51.492;10.368;2023-08-30T03:16:42;1.60;;;1.35;;
75316;SDS011;63913;51.492;10.368;2023-08-30T03:19:09;3.05;;;1.30;;
75316;SDS011;63913;51.492;10.368;2023-08-30T03:21:35;1.25;;;1.00;;
75316;SDS011;63913;51.492;10.368;2023-08-30T03:24:00;1.40;;;1.30;;
75316;SDS011;63913;51.492;10.368;2023-08-30T03:26:26;1.30;;;1.20;;
75316;SDS011;63913;51.492;10.368;2023-08-30T03:28:53;2.58;;;1.30;;
75316;SDS011;63913;51.492;10.368;2023-08-30T03:31:19;1.58;;;1.40;;
75316;SDS011;63913;51.492;10.368;2023-08-30T03:33:49;2.15;;;1.15;;
75316;SDS011;63913;51.492;10.368;2023-08-30T03:36:16;2.60;;;1.40;;
75316;SDS011;63913;51.492;10.368;2023-08-30T03:38:42;1.58;;;1.33;;
75316;SDS011;63913;51.492;10.368;2023-08-30T03:41:08;1.50;;;1.40;;
75316;SDS011;63913;51.492;10.368;2023-08-30T03:43:35;1.50;;;1.40;;
75316;SDS011;63913;51.492;10.368;2023-08-30T03:46:01;2.85;;;1.42;;
75316;SDS011;63913;51.492;10.368;2023-08-30T03:48:28;1.40;;;1.30;;
75316;SDS011;63913;51.492;10.368;2023-08-30T03:50:54;1.40;;;1.30;;
75316;SDS011;63913;51.492;10.368;2023-08-30T03:53:20;1.65;;;1.30;;
75316;SDS011;63913;51.492;10.368;2023-08-30T03:55:45;1.98;;;1.38;;
75316;SDS011;63913;51.492;10.368;2023-08-30T03:58:11;2.63;;;1.50;;
75316;SDS011;63913;51.492;10.368;2023-08-30T04:00:37;2.55;;;1.55;;
75316;SDS011;63913;51.492;10.368;2023-08-30T04:03:04;3.42;;;1.63;;
75316;SDS011;63913;51.492;10.368;2023-08-30T04:05:34;5.32;;;1.42;;
75316;SDS011;63913;51.492;10.368;2023-08-30T04:08:04;2.08;;;1.60;;
75316;SDS011;63913;51.492;10.368;2023-08-30T04:10:37;1.83;;;1.55;;
75316;SDS011;63913;51.492;10.368;2023-08-30T04:13:03;2.13;;;1.60;;
75316;SDS011;63913;51.492;10.368;2023-08-30T04:15:37;1.98;;;1.77;;
75316;SDS011;63913;51.492;10.368;2023-08-30T04:18:04;1.65;;;1.40;;
75316;SDS011;63913;51.492;10.368;2023-08-30T04:20:31;1.73;;;1.45;;
75316;SDS011;63913;51.492;10.368;2023-08-30T04:23:00;1.70;;;1.35;;
75316;SDS011;63913;51.492;10.368;2023-08-30T04:25:28;1.83;;;1.52;;
75316;SDS011;63913;51.492;10.368;2023-08-30T04:27:54;2.67;;;1.48;;
75316;SDS011;63913;51.492;10.368;2023-08-30T04:30:19;2.30;;;1.85;;
75316;SDS011;63913;51.492;10.368;2023-08-30T04:32:45;2.72;;;1.65;;
75316;SDS011;63913;51.492;10.368;2023-08-30T04:35:11;2.20;;;2.00;;
75316;SDS011;63913;51.492;10.368;2023-08-30T04:37:36;2.45;;;1.70;;
75316;SDS011;63913;51.492;10.368;2023-08-30T04:40:08;2.63;;;2.00;;
75316;SDS011;63913;51.492;10.368;2023-08-30T04:42:37;4.35;;;2.00;;
75316;SDS011;63913;51.492;10.368;2023-08-30T04:45:05;1.83;;;1.70;;
75316;SDS011;63913;51.492;10.368;2023-08-30T04:47:31;2.08;;;1.75;;
75316;SDS011;63913;51.492;10.368;2023-08-30T04:49:59;2.15;;;1.92;;
75316;SDS011;63913;51.492;10.368;2023-08-30T04:52:25;2.33;;;1.90;;
75316;SDS011;63913;51.492;10.368;2023-08-30T04:54:53;2.10;;;1.90;;
75316;SDS011;63913;51.492;10.368;2023-08-30T04:57:21;2.67;;;1.70;;
75316;SDS011;63913;51.492;10.368;2023-08-30T04:59:46;3.55;;;2.10;;
75316;SDS011;63913;51.492;10.368;2023-08-30T05:02:13;2.03;;;1.80;;
75316;SDS011;63913;51.492;10.368;2023-08-30T05:04:59;2.22;;;2.03;;
75316;SDS011;63913;51.492;10.368;2023-08-30T05:07:25;5.40;;;1.95;;
75316;SDS011;63913;51.492;10.368;2023-08-30T05:09:50;3.33;;;2.25;;
75316;SDS011;63913;51.492;10.368;2023-08-30T05:12:16;2.63;;;2.08;;
75316;SDS011;63913;51.492;10.368;2023-08-30T05:14:41;3.40;;;2.20;;
75316;SDS011;63913;51.492;10.368;2023-08-30T05:17:07;2.45;;;2.00;;
75316;SDS011;63913;51.492;10.368;2023-08-30T05:19:32;4.28;;;1.92;;
75316;SDS011;63913;51.492;10.368;2023-08-30T05:21:58;3.45;;;2.20;;
75316;SDS011;63913;51.492;10.368;2023-08-30T05:24:24;2.58;;;2.05;;
75316;SDS011;63913;51.492;10.368;2023-08-30T05:26:52;3.17;;;2.22;;
75316;SDS011;63913;51.492;10.368;2023-08-30T05:29:17;4.72;;;2.35;;
75316;SDS011;63913;51.492;10.368;2023-08-30T05:31:43;3.75;;;2.10;;
75316;SDS011;63913;51.492;10.368;2023-08-30T05:34:24;3.35;;;2.40;;
75316;SDS011;63913;51.492;10.368;2023-08-30T05:37:05;3.38;;;2.00;;
75316;SDS011;63913;51.492;10.368;2023-08-30T05:39:59;3.08;;;1.95;;
75316;SDS011;63913;51.492;10.368;2023-08-30T05:42:25;2.00;;;1.80;;
75316;SDS011;63913;51.492;10.368;2023-08-30T05:44:50;2.65;;;2.35;;
75316;SDS011;63913;51.492;10.368;2023-08-30T05:47:16;2.90;;;2.22;;
75316;SDS011;63913;51.492;10.368;2023-08-30T05:49:43;2.65;;;2.05;;
75316;SDS011;63913;51.492;10.368;2023-08-30T05:52:09;3.85;;;2.60;;
75316;SDS011;63913;51.492;10.368;2023-08-30T05:54:35;3.67;;;2.58;;
75316;SDS011;63913;51.492;10.368;2023-08-30T05:57:01;4.72;;;2.60;;
75316;SDS011;63913;51.492;10.368;2023-08-30T05:59:26;2.33;;;2.10;;
75316;SDS011;63913;51.492;10.368;2023-08-30T06:01:52;3.83;;;2.53;;
75316;SDS011;63913;51.492;10.368;2023-08-30T06:04:18;3.85;;;2.72;;
75316;SDS011;63913;51.492;10.368;2023-08-30T06:06:43;3.72;;;2.70;;
75316;SDS011;63913;51.492;10.368;2023-08-30T06:09:09;3.88;;;2.60;;
75316;SDS011;63913;51.492;10.368;2023-08-30T06:11:34;3.55;;;2.25;;
75316;SDS011;63913;51.492;10.368;2023-08-30T06:13:59;3.22;;;2.92;;
75316;SDS011;63913;51.492;10.368;2023-08-30T06:16:25;5.88;;;2.38;;
75316;SDS011;63913;51.492;10.368;2023-08-30T06:18:50;3.25;;;2.25;;
75316;SDS011;63913;51.492;10.368;2023-08-30T06:21:16;2.58;;;2.00;;
75316;SDS011;63913;51.492;10.368;2023-08-30T06:23:41;4.45;;;2.20;;
75316;SDS011;63913;51.492;10.368;2023-08-30T06:26:07;3.13;;;2.20;;
75316;SDS011;63913;51.492;10.368;2023-08-30T06:28:32;4.45;;;4.05;;
75316;SDS011;63913;51.492;10.368;2023-08-30T06:30:57;3.65;;;2.47;;
75316;SDS011;63913;51.492;10.368;2023-08-30T06:33:23;5.22;;;2.08;;
75316;SDS011;63913;51.492;10.368;2023-08-30T06:35:50;3.25;;;2.10;;
75316;SDS011;63913;51.492;10.368;2023-08-30T06:38:16;2.88;;;1.95;;
75316;SDS011;63913;51.492;10.368;2023-08-30T06:40:47;2.40;;;2.20;;
75316;SDS011;63913;51.492;10.368;2023-08-30T06:43:14;3.78;;;2.22;;
75316;SDS011;63913;51.492;10.368;2023-08-30T06:45:40;2.38;;;2.17;;
75316;SDS011;63913;51.492;10.368;2023-08-30T06:48:06;2.85;;;2.15;;
75316;SDS011;63913;51.492;10.368;2023-08-30T06:50:32;4.22;;;2.60;;
75316;SDS011;63913;51.492;10.368;2023-08-30T06:52:58;4.43;;;2.70;;
75316;SDS011;63913;51.492;10.368;2023-08-30T06:55:23;5.10;;;3.13;;
75316;SDS011;63913;51.492;10.368;2023-08-30T06:57:49;4.32;;;2.80;;
75316;SDS011;63913;51.492;10.368;2023-08-30T07:00:15;2.80;;;2.33;;
75316;SDS011;63913;51.492;10.368;2023-08-30T07:02:41;5.28;;;2.53;;
75316;SDS011;63913;51.492;10.368;2023-08-30T07:05:10;3.40;;;2.60;;
75316;SDS011;63913;51.492;10.368;2023-08-30T07:07:35;3.50;;;2.53;;
75316;SDS011;63913;51.492;10.368;2023-08-30T07:10:01;4.07;;;2.70;;
75316;SDS011;63913;51.492;10.368;2023-08-30T07:12:27;3.63;;;2.45;;
75316;SDS011;63913;51.492;10.368;2023-08-30T07:14:53;4.05;;;2.13;;
75316;SDS011;63913;51.492;10.368;2023-08-30T07:17:19;2.83;;;2.20;;
75316;SDS011;63913;51.492;10.368;2023-08-30T07:19:44;3.60;;;2.50;;
75316;SDS011;63913;51.492;10.368;2023-08-30T07:22:10;3.33;;;2.20;;
75316;SDS011;63913;51.492;10.368;2023-08-30T07:24:35;3.95;;;2.50;;
75316;SDS011;63913;51.492;10.368;2023-08-30T07:27:00;2.17;;;1.98;;
75316;SDS011;63913;51.492;10.368;2023-08-30T07:29:26;2.70;;;2.00;;
75316;SDS011;63913;51.492;10.368;2023-08-30T07:31:51;2.40;;;2.08;;
75316;SDS011;63913;51.492;10.368;2023-08-30T07:34:18;5.03;;;2.08;;
75316;SDS011;63913;51.492;10.368;2023-08-30T07:36:44;6.07;;;2.05;;
75316;SDS011;63913;51.492;10.368;2023-08-30T07:39:09;2.53;;;1.80;;
75316;SDS011;63913;51.492;10.368;2023-08-30T07:41:35;2.33;;;1.67;;
75316;SDS011;63913;51.492;10.368;2023-08-30T07:44:01;1.60;;;1.50;;
75316;SDS011;63913;51.492;10.368;2023-08-30T07:46:26;1.95;;;1.55;;
75316;SDS011;63913;51.492;10.368;2023-08-30T07:48:52;1.73;;;1.45;;
75316;SDS011;63913;51.492;10.368;2023-08-30T07:51:17;2.05;;;1.42;;
75316;SDS011;63913;51.492;10.368;2023-08-30T07:53:42;2.25;;;1.60;;
75316;SDS011;63913;51.492;10.368;2023-08-30T07:56:08;2.42;;;1.52;;
75316;SDS011;63913;51.492;10.368;2023-08-30T07:58:33;2.33;;;1.60;;
75316;SDS011;63913;51.492;10.368;2023-08-30T08:00:59;1.90;;;1.65;;
75316;SDS011;63913;51.492;10.368;2023-08-30T08:03:24;1.58;;;1.30;;
75316;SDS011;63913;51.492;10.368;2023-08-30T08:05:50;1.67;;;1.38;;
75316;SDS011;63913;51.492;10.368;2023-08-30T08:08:15;1.98;;;1.48;;
75316;SDS011;63913;51.492;10.368;2023-08-30T08:10:42;2.05;;;1.50;;
75316;SDS011;63913;51.492;10.368;2023-08-30T08:13:07;2.50;;;1.52;;
75316;SDS011;63913;51.492;10.368;2023-08-30T08:15:33;1.50;;;1.40;;
75316;SDS011;63913;51.492;10.368;2023-08-30T08:18:01;2.17;;;1.30;;
75316;SDS011;63913;51.492;10.368;2023-08-30T08:20:28;1.80;;;1.50;;
75316;SDS011;63913;51.492;10.368;2023-08-30T08:22:54;2.05;;;1.42;;
75316;SDS011;63913;51.492;10.368;2023-08-30T08:25:20;5.35;;;1.58;;
75316;SDS011;63913;51.492;10.368;2023-08-30T08:27:47;2.45;;;1.92;;
75316;SDS011;63913;51.492;10.368;2023-08-30T08:30:13;2.63;;;1.75;;
75316;SDS011;63913;51.492;10.368;2023-08-30T08:32:38;2.28;;;1.63;;
75316;SDS011;63913;51.492;10.368;2023-08-30T08:35:04;2.03;;;1.58;;
75316;SDS011;63913;51.492;10.368;2023-08-30T08:37:30;14.25;;;6.78;;
75316;SDS011;63913;51.492;10.368;2023-08-30T08:39:56;3.40;;;2.25;;
75316;SDS011;63913;51.492;10.368;2023-08-30T08:42:22;5.07;;;1.80;;
75316;SDS011;63913;51.492;10.368;2023-08-30T08:44:47;3.75;;;1.80;;
75316;SDS011;63913;51.492;10.368;2023-08-30T08:47:19;2.60;;;2.08;;
75316;SDS011;63913;51.492;10.368;2023-08-30T08:49:46;2.55;;;2.08;;
75316;SDS011;63913;51.492;10.368;2023-08-30T08:52:13;3.40;;;1.90;;
75316;SDS011;63913;51.492;10.368;2023-08-30T08:54:40;9.00;;;1.98;;
75316;SDS011;63913;51.492;10.368;2023-08-30T08:57:08;4.63;;;1.90;;
75316;SDS011;63913;51.492;10.368;2023-08-30T08:59:34;1.95;;;1.63;;
75316;SDS011;63913;51.492;10.368;2023-08-30T09:02:00;2.75;;;2.00;;
75316;SDS011;63913;51.492;10.368;2023-08-30T09:04:25;3.97;;;2.60;;
75316;SDS011;63913;51.492;10.368;2023-08-30T09:06:51;4.28;;;2.15;;
75316;SDS011;63913;51.492;10.368;2023-08-30T09:09:17;3.00;;;2.20;;
75316;SDS011;63913;51.492;10.368;2023-08-30T09:11:42;4.30;;;2.15;;
75316;SDS011;63913;51.492;10.368;2023-08-30T09:14:08;2.30;;;2.10;;
75316;SDS011;63913;51.492;10.368;2023-08-30T09:16:34;3.22;;;2.63;;
75316;SDS011;63913;51.492;10.368;2023-08-30T09:19:00;2.83;;;2.20;;
75316;SDS011;63913;51.492;10.368;2023-08-30T09:21:27;2.80;;;1.98;;
75316;SDS011;63913;51.492;10.368;2023-08-30T09:26:31;7.00;;;3.90;;
75316;SDS011;63913;51.492;10.368;2023-08-30T09:29:04;7.03;;;4.00;;
75316;SDS011;63913;51.492;10.368;2023-08-30T09:31:37;4.70;;;3.22;;
75316;SDS011;63913;51.492;10.368;2023-08-30T09:34:04;4.47;;;3.15;;
75316;SDS011;63913;51.492;10.368;2023-08-30T09:36:37;5.38;;;3.53;;
75316;SDS011;63913;51.492;10.368;2023-08-30T09:39:13;6.22;;;3.22;;
75316;SDS011;63913;51.492;10.368;2023-08-30T09:41:42;6.97;;;3.63;;
75316;SDS011;63913;51.492;10.368;2023-08-30T09:46:42;5.90;;;3.00;;
75316;SDS011;63913;51.492;10.368;2023-08-30T09:49:09;4.20;;;3.30;;
75316;SDS011;63913;51.492;10.368;2023-08-30T09:51:36;5.95;;;3.78;;
75316;SDS011;63913;51.492;10.368;2023-08-30T09:54:06;5.38;;;4.15;;
75316;SDS011;63913;51.492;10.368;2023-08-30T09:56:44;6.78;;;3.63;;
75316;SDS011;63913;51.492;10.368;2023-08-30T09:59:11;4.88;;;3.60;;
75316;SDS011;63913;51.492;10.368;2023-08-30T10:01:38;6.53;;;3.90;;
75316;SDS011;63913;51.492;10.368;2023-08-30T10:04:05;4.53;;;3.50;;
75316;SDS011;63913;51.492;10.368;2023-08-30T10:06:32;6.63;;;4.35;;
75316;SDS011;63913;51.492;10.368;2023-08-30T10:08:58;7.43;;;4.38;;
75316;SDS011;63913;51.492;10.368;2023-08-30T10:11:25;7.50;;;4.72;;
75316;SDS011;63913;51.492;10.368;2023-08-30T10:13:54;7.53;;;5.55;;
75316;SDS011;63913;51.492;10.368;2023-08-30T10:16:21;7.20;;;4.75;;
75316;SDS011;63913;51.492;10.368;2023-08-30T10:18:52;7.20;;;5.45;;
75316;SDS011;63913;51.492;10.368;2023-08-30T10:21:24;6.53;;;4.95;;
75316;SDS011;63913;51.492;10.368;2023-08-30T10:23:51;6.35;;;4.97;;
75316;SDS011;63913;51.492;10.368;2023-08-30T10:26:21;7.15;;;4.88;;
75316;SDS011;63913;51.492;10.368;2023-08-30T10:28:53;8.05;;;5.25;;
75316;SDS011;63913;51.492;10.368;2023-08-30T10:31:20;7.22;;;5.47;;
75316;SDS011;63913;51.492;10.368;2023-08-30T10:36:21;8.02;;;4.78;;
75316;SDS011;63913;51.492;10.368;2023-08-30T10:38:52;7.35;;;4.40;;
75316;SDS011;63913;51.492;10.368;2023-08-30T10:41:20;7.07;;;5.28;;
75316;SDS011;63913;51.492;10.368;2023-08-30T10:43:49;6.82;;;4.95;;
75316;SDS011;63913;51.492;10.368;2023-08-30T10:46:16;6.57;;;4.70;;
75316;SDS011;63913;51.492;10.368;2023-08-30T10:48:42;6.22;;;4.40;;
75316;SDS011;63913;51.492;10.368;2023-08-30T10:51:21;9.63;;;6.32;;
75316;SDS011;63913;51.492;10.368;2023-08-30T10:54:00;7.80;;;4.30;;
75316;SDS011;63913;51.492;10.368;2023-08-30T10:56:29;6.68;;;4.90;;
75316;SDS011;63913;51.492;10.368;2023-08-30T10:58:55;6.32;;;4.47;;
75316;SDS011;63913;51.492;10.368;2023-08-30T11:01:20;7.20;;;4.85;;
75316;SDS011;63913;51.492;10.368;2023-08-30T11:03:46;7.65;;;5.45;;
75316;SDS011;63913;51.492;10.368;2023-08-30T11:06:14;7.32;;;5.25;;
75316;SDS011;63913;51.492;10.368;2023-08-30T11:08:39;8.48;;;5.25;;
75316;SDS011;63913;51.492;10.368;2023-08-30T11:11:06;6.05;;;4.80;;
75316;SDS011;63913;51.492;10.368;2023-08-30T11:13:33;5.13;;;4.15;;
75316;SDS011;63913;51.492;10.368;2023-08-30T11:16:00;6.95;;;4.68;;
75316;SDS011;63913;51.492;10.368;2023-08-30T11:18:26;6.00;;;4.22;;
75316;SDS011;63913;51.492;10.368;2023-08-30T11:21:01;7.18;;;4.28;;
75316;SDS011;63913;51.492;10.368;2023-08-30T11:23:27;7.07;;;4.28;;
75316;SDS011;63913;51.492;10.368;2023-08-30T11:25:52;5.50;;;4.10;;
75316;SDS011;63913;51.492;10.368;2023-08-30T11:28:25;4.88;;;3.50;;
75316;SDS011;63913;51.492;10.368;2023-08-30T11:30:54;5.20;;;4.13;;
75316;SDS011;63913;51.492;10.368;2023-08-30T11:33:20;5.45;;;4.10;;
75316;SDS011;63913;51.492;10.368;2023-08-30T11:35:46;8.05;;;4.88;;
75316;SDS011;63913;51.492;10.368;2023-08-30T11:38:14;5.90;;;4.43;;
75316;SDS011;63913;51.492;10.368;2023-08-30T11:40:40;6.00;;;4.90;;
75316;SDS011;63913;51.492;10.368;2023-08-30T11:43:06;5.72;;;4.10;;
75316;SDS011;63913;51.492;10.368;2023-08-30T11:45:32;4.45;;;3.95;;
75316;SDS011;63913;51.492;10.368;2023-08-30T11:48:01;7.28;;;4.50;;
75316;SDS011;63913;51.492;10.368;2023-08-30T11:50:27;4.65;;;3.67;;
75316;SDS011;63913;51.492;10.368;2023-08-30T11:52:53;5.05;;;3.70;;
75316;SDS011;63913;51.492;10.368;2023-08-30T11:55:22;4.93;;;3.33;;
75316;SDS011;63913;51.492;10.368;2023-08-30T11:57:49;4.88;;;3.67;;
75316;SDS011;63913;51.492;10.368;2023-08-30T12:00:17;4.75;;;3.47;;
75316;SDS011;63913;51.492;10.368;2023-08-30T12:02:44;4.85;;;4.03;;
75316;SDS011;63913;51.492;10.368;2023-08-30T12:05:14;4.93;;;3.40;;
75316;SDS011;63913;51.492;10.368;2023-08-30T12:07:40;5.57;;;3.97;;
75316;SDS011;63913;51.492;10.368;2023-08-30T12:10:09;4.63;;;3.85;;
75316;SDS011;63913;51.492;10.368;2023-08-30T12:12:36;6.35;;;3.75;;
75316;SDS011;63913;51.492;10.368;2023-08-30T12:15:12;5.50;;;3.40;;
75316;SDS011;63913;51.492;10.368;2023-08-30T12:17:40;4.95;;;3.63;;
75316;SDS011;63913;51.492;10.368;2023-08-30T12:20:05;7.30;;;4.30;;
75316;SDS011;63913;51.492;10.368;2023-08-30T12:22:37;5.82;;;3.63;;
75316;SDS011;63913;51.492;10.368;2023-08-30T12:25:19;6.90;;;3.95;;
75316;SDS011;63913;51.492;10.368;2023-08-30T12:27:45;5.15;;;3.67;;
75316;SDS011;63913;51.492;10.368;2023-08-30T12:30:12;3.70;;;2.90;;
75316;SDS011;63913;51.492;10.368;2023-08-30T12:32:38;6.10;;;3.70;;
75316;SDS011;63913;51.492;10.368;2023-08-30T12:35:04;3.58;;;2.88;;
75316;SDS011;63913;51.492;10.368;2023-08-30T12:37:30;4.78;;;3.17;;
75316;SDS011;63913;51.492;10.368;2023-08-30T12:39:55;3.83;;;3.10;;
75316;SDS011;63913;51.492;10.368;2023-08-30T12:42:20;3.83;;;3.20;;
75316;SDS011;63913;51.492;10.368;2023-08-30T12:44:46;4.82;;;3.53;;
75316;SDS011;63913;51.492;10.368;2023-08-30T12:47:11;4.60;;;3.35;;
75316;SDS011;63913;51.492;10.368;2023-08-30T12:49:39;4.22;;;3.40;;
75316;SDS011;63913;51.492;10.368;2023-08-30T12:52:05;4.32;;;3.40;;
75316;SDS011;63913;51.492;10.368;2023-08-30T12:54:32;5.35;;;3.40;;
75316;SDS011;63913;51.492;10.368;2023-08-30T12:56:57;3.95;;;3.20;;
75316;SDS011;63913;51.492;10.368;2023-08-30T12:59:22;3.40;;;2.90;;
75316;SDS011;63913;51.492;10.368;2023-08-30T13:01:48;5.13;;;4.10;;
75316;SDS011;63913;51.492;10.368;2023-08-30T13:04:13;11.25;;;6.70;;
75316;SDS011;63913;51.492;10.368;2023-08-30T13:06:39;4.72;;;2.85;;
75316;SDS011;63913;51.492;10.368;2023-08-30T13:09:04;4.75;;;2.75;;
75316;SDS011;63913;51.492;10.368;2023-08-30T13:11:29;5.97;;;2.55;;
75316;SDS011;63913;51.492;10.368;2023-08-30T13:13:57;4.65;;;2.88;;
75316;SDS011;63913;51.492;10.368;2023-08-30T13:16:23;3.53;;;2.90;;
75316;SDS011;63913;51.492;10.368;2023-08-30T13:18:49;3.00;;;2.20;;
75316;SDS011;63913;51.492;10.368;2023-08-30T13:21:15;4.38;;;3.00;;
75316;SDS011;63913;51.492;10.368;2023-08-30T13:23:40;3.55;;;2.90;;
75316;SDS011;63913;51.492;10.368;2023-08-30T13:26:05;4.65;;;3.05;;
75316;SDS011;63913;51.492;10.368;2023-08-30T13:28:31;3.00;;;2.70;;
75316;SDS011;63913;51.492;10.368;2023-08-30T13:30:56;3.40;;;2.60;;
75316;SDS011;63913;51.492;10.368;2023-08-30T13:33:22;3.58;;;2.72;;
75316;SDS011;63913;51.492;10.368;2023-08-30T13:35:50;3.75;;;2.60;;
75316;SDS011;63913;51.492;10.368;2023-08-30T13:38:16;7.32;;;2.85;;
75316;SDS011;63913;51.492;10.368;2023-08-30T13:40:42;3.03;;;2.28;;
75316;SDS011;63913;51.492;10.368;2023-08-30T13:43:08;3.95;;;1.98;;
75316;SDS011;63913;51.492;10.368;2023-08-30T13:45:33;2.78;;;2.10;;
75316;SDS011;63913;51.492;10.368;2023-08-30T13:47:58;2.30;;;2.10;;
75316;SDS011;63913;51.492;10.368;2023-08-30T13:50:24;2.88;;;2.05;;
75316;SDS011;63913;51.492;10.368;2023-08-30T13:52:55;2.28;;;2.08;;
75316;SDS011;63913;51.492;10.368;2023-08-30T13:55:21;3.20;;;2.45;;
75316;SDS011;63913;51.492;10.368;2023-08-30T13:57:46;2.50;;;2.30;;
75316;SDS011;63913;51.492;10.368;2023-08-30T14:00:12;3.10;;;2.40;;
75316;SDS011;63913;51.492;10.368;2023-08-30T14:02:38;2.80;;;2.20;;
75316;SDS011;63913;51.492;10.368;2023-08-30T14:05:03;3.88;;;2.67;;
75316;SDS011;63913;51.492;10.368;2023-08-30T14:07:29;2.88;;;2.67;;
75316;SDS011;63913;51.492;10.368;2023-08-30T14:09:55;4.72;;;2.47;;
75316;SDS011;63913;51.492;10.368;2023-08-30T14:12:20;3.40;;;2.22;;
75316;SDS011;63913;51.492;10.368;2023-08-30T14:14:46;3.05;;;2.30;;
75316;SDS011;63913;51.492;10.368;2023-08-30T14:17:11;2.92;;;2.33;;
75316;SDS011;63913;51.492;10.368;2023-08-30T14:19:37;3.92;;;2.45;;
75316;SDS011;63913;51.492;10.368;2023-08-30T14:22:02;3.17;;;2.30;;
75316;SDS011;63913;51.492;10.368;2023-08-30T14:24:39;3.83;;;2.30;;
75316;SDS011;63913;51.492;10.368;2023-08-30T14:27:04;3.13;;;2.30;;
75316;SDS011;63913;51.492;10.368;2023-08-30T14:29:30;3.03;;;2.35;;
75316;SDS011;63913;51.492;10.368;2023-08-30T14:31:56;3.00;;;2.20;;
75316;SDS011;63913;51.492;10.368;2023-08-30T14:34:21;2.83;;;2.38;;
75316;SDS011;63913;51.492;10.368;2023-08-30T14:36:47;3.72;;;2.20;;
75316;SDS011;63913;51.492;10.368;2023-08-30T14:39:13;3.13;;;1.98;;
75316;SDS011;63913;51.492;10.368;2023-08-30T14:41:39;3.75;;;2.15;;
75316;SDS011;63913;51.492;10.368;2023-08-30T14:44:04;2.83;;;2.40;;